Dera Bugti Weather



Dera Bugti's Current Weather

Temprature 27.48o clear sky

clear sky

Rain: 0 %

Min Temprature27.48o
Max Temprature27.48o
Humidity51
Wind Speed1.35 m/h
Sun Rise06:13:35
Sun Set18:16:06
Current Time: 26-Sep-2022 08:01:40
Lat/Lon: 29.0307, 69.151




Dera Bugti's Geo Location



Dera Bugti's Weather Forecast

Time Overall Temp Min Temp Max Temp Humidity Wind Speed Rain
26-Sep-2022 (Mon)
11:00:00 clear sky 28.450 28.450 30.380 48 2.89 m/h 0 %
14:00:00 clear sky 30.910 30.910 32.620 39 3.05 m/h 0 %
17:00:00 clear sky 32.930 32.930 32.930 29 3.59 m/h 0 %
20:00:00 clear sky 30.940 30.940 30.940 35 3.32 m/h 0 %
23:00:00 clear sky 29.110 29.110 29.110 40 2.39 m/h 0 %
27-Sep-2022 (Tue)
02:00:00 clear sky 27.820 27.820 27.820 42 2.32 m/h 0 %
05:00:00 clear sky 26.720 26.720 26.720 44 2.28 m/h 0 %
08:00:00 clear sky 27.990 27.990 27.990 40 2.24 m/h 0 %
11:00:00 clear sky 31.370 31.370 31.370 33 3.69 m/h 0 %
14:00:00 clear sky 33.450 33.450 33.450 28 4.65 m/h 0 %
17:00:00 clear sky 33.290 33.290 33.290 26 3.73 m/h 0 %
20:00:00 clear sky 30.940 30.940 30.940 33 2.53 m/h 0 %
23:00:00 clear sky 29.230 29.230 29.230 37 2.07 m/h 0 %
28-Sep-2022 (Wed)
02:00:00 clear sky 27.700 27.700 27.700 42 1.42 m/h 0 %
05:00:00 clear sky 26.270 26.270 26.270 48 1.75 m/h 0 %
08:00:00 clear sky 27.450 27.450 27.450 50 1.68 m/h 0 %
11:00:00 clear sky 30.880 30.880 30.880 38 2.97 m/h 0 %
14:00:00 clear sky 32.960 32.960 32.960 31 3.49 m/h 0 %
17:00:00 clear sky 32.730 32.730 32.730 30 3.96 m/h 0 %
20:00:00 clear sky 30.670 30.670 30.670 33 3.07 m/h 0 %
23:00:00 clear sky 28.910 28.910 28.910 35 1.92 m/h 0 %
29-Sep-2022 (Thu)
02:00:00 clear sky 27.020 27.020 27.020 41 1.67 m/h 0 %
05:00:00 clear sky 25.370 25.370 25.370 55 1.57 m/h 0 %
08:00:00 clear sky 26.630 26.630 26.630 55 1.25 m/h 0 %
11:00:00 clear sky 30.320 30.320 30.320 37 2.04 m/h 0 %
14:00:00 clear sky 32.570 32.570 32.570 28 3.71 m/h 0 %
17:00:00 clear sky 32.440 32.440 32.440 26 3.38 m/h 0 %
20:00:00 clear sky 30.290 30.290 30.290 31 2.8 m/h 0 %
23:00:00 clear sky 28.700 28.700 28.700 36 1.2 m/h 0 %
30-Sep-2022 (Fri)
02:00:00 clear sky 27.510 27.510 27.510 38 1.93 m/h 0 %
05:00:00 clear sky 25.950 25.950 25.950 51 1.67 m/h 0 %
08:00:00 clear sky 27.010 27.010 27.010 56 1.5 m/h 0 %
11:00:00 clear sky 30.810 30.810 30.810 39 3.16 m/h 0 %
14:00:00 clear sky 33.000 33.000 33.000 31 4.22 m/h 0 %
17:00:00 clear sky 32.850 32.850 32.850 29 3.4 m/h 0 %
20:00:00 clear sky 30.600 30.600 30.600 35 3.48 m/h 0 %
23:00:00 clear sky 28.790 28.790 28.790 41 2.03 m/h 0 %
01-Oct-2022 (Sat)
02:00:00 clear sky 27.510 27.510 27.510 44 1.46 m/h 0 %
05:00:00 clear sky 25.990 25.990 25.990 47 1.05 m/h 0 %
08:00:00 clear sky 27.560 27.560 27.560 41 1.35 m/h 0 %

Famous Cities (61)